Time;durP1;ratioP1;P1;durP2;ratioP2;P2;SDS_P1;SDS_P2;PMS_P1;PMS_P2;Temp;Humidity;BMP_temperature;BMP_pressure;BME280_temperature;BME280_humidity;BME280_pressure;Samples;Min_cycle;Max_cycle;Signal;HPM_P1;HPM_P2
2023/12/06 00:00:17;;;;;;;5.65;5.15;;;;;;;106.45;0.00;100169.13;5044834;28;20261;-76
2023/12/06 00:02:55;;;;;;;9.10;5.82;;;;;;;64.84;0.00;100169.13;5049810;28;20229;-76
2023/12/06 00:08:11;;;;;;;6.97;5.47;;;;;;;44.04;0.00;100169.13;5058506;28;20229;-74
2023/12/06 00:10:38;;;;;;;8.98;6.53;;;;;;;23.26;0.00;100169.13;5054990;28;20298;-75
2023/12/06 00:13:04;;;;;;;5.70;5.13;;;;;;;64.84;0.00;100169.13;5058453;28;20199;-74
2023/12/06 00:15:34;;;;;;;7.80;5.32;;;;;;;-142.91;0.00;100169.13;5054446;28;20199;-73
2023/12/06 00:18:09;;;;;;;6.05;5.28;;;;;;;106.45;0.00;100169.13;5061211;28;20680;-74
2023/12/06 00:23:38;;;;;;;6.18;4.78;;;;;;;-142.91;0.00;100169.13;5046844;28;20230;-75
2023/12/06 00:26:06;;;;;;;8.70;5.32;;;;;;;23.25;0.00;100169.13;5072571;28;20260;-74
2023/12/06 00:28:35;;;;;;;8.75;5.50;;;;;;;106.45;0.00;100169.13;5062118;28;20694;-74
2023/12/06 00:31:02;;;;;;;6.13;4.90;;;;;;;-142.91;0.00;100169.13;5052970;28;20294;-73
2023/12/06 00:33:29;;;;;;;4.82;4.28;;;;;;;44.04;0.00;100169.13;5059679;28;20672;-74
2023/12/06 00:35:57;;;;;;;7.00;5.40;;;;;;;44.04;0.00;100169.13;5065743;28;20702;-75
2023/12/06 00:38:24;;;;;;;6.95;5.68;;;;;;;28.45;0.00;100169.13;5062222;28;20286;-73
2023/12/06 00:40:52;;;;;;;6.53;5.05;;;;;;;-142.91;0.00;100169.13;5058368;28;20195;-74
2023/12/06 00:43:19;;;;;;;6.57;5.95;;;;;;;23.25;0.00;100169.13;5056464;28;20298;-74
2023/12/06 00:45:45;;;;;;;5.85;5.18;;;;;;;23.26;0.00;100169.13;5059794;28;20641;-73
2023/12/06 00:48:12;;;;;;;7.70;5.18;;;;;;;-142.91;0.00;100169.13;5052541;28;20226;-74
2023/12/06 00:50:39;;;;;;;6.13;5.60;;;;;;;44.04;0.00;100169.13;5061965;28;20201;-72
2023/12/06 00:53:05;;;;;;;5.07;4.38;;;;;;;44.04;0.00;100169.13;5058269;28;20759;-75
2023/12/06 00:55:32;;;;;;;6.15;5.22;;;;;;;23.33;0.00;100169.13;5052511;28;20281;-75
2023/12/06 00:58:00;;;;;;;5.50;5.00;;;;;;;44.04;0.00;100169.13;5059643;28;20230;-75
2023/12/06 01:00:38;;;;;;;6.22;5.13;;;;;;;23.25;0.00;100169.13;5053424;28;20264;-77
2023/12/06 01:03:05;;;;;;;6.85;5.43;;;;;;;33.65;0.00;100169.13;5053229;28;20203;-75
2023/12/06 01:05:32;;;;;;;6.57;5.28;;;;;;;23.33;0.00;100169.13;5052113;28;20421;-78
2023/12/06 01:07:59;;;;;;;8.30;4.80;;;;;;;33.65;0.00;100169.13;5055904;28;20285;-79
2023/12/06 01:10:29;;;;;;;5.75;5.25;;;;;;;-142.91;0.00;100169.13;5057392;28;20997;-75
2023/12/06 01:12:55;;;;;;;5.30;4.80;;;;;;;106.45;0.00;100169.13;5047991;28;20203;-75
2023/12/06 01:15:24;;;;;;;8.95;4.95;;;;;;;189.72;0.00;100169.13;5054222;28;20665;-75
2023/12/06 01:17:51;;;;;;;5.03;4.65;;;;;;;23.29;0.00;100169.13;5048353;28;20207;-73
2023/12/06 01:20:17;;;;;;;5.07;4.55;;;;;;;106.45;0.00;100169.13;5046087;28;20195;-74
2023/12/06 01:22:44;;;;;;;6.30;4.72;;;;;;;23.26;0.00;100169.13;5060581;28;20751;-72
2023/12/06 01:25:11;;;;;;;7.07;4.97;;;;;;;-142.91;0.00;100169.13;5056220;28;20229;-73
2023/12/06 01:27:47;;;;;;;4.90;4.22;;;;;;;;;;5060830;28;20195;-72
2023/12/06 01:30:25;;;;;;;5.78;4.90;;;;;;;-142.91;0.00;100169.13;5049980;28;20726;-71
2023/12/06 01:32:54;;;;;;;5.97;4.15;;;;;;;23.33;0.00;100169.13;5061183;28;20296;-72
2023/12/06 01:35:20;;;;;;;8.15;4.78;;;;;;;44.04;0.00;100169.13;5050065;28;20241;-73
2023/12/06 01:37:49;;;;;;;3.90;3.45;;;;;;;-142.91;0.00;100169.13;5056390;28;20195;-77
2023/12/06 01:40:18;;;;;;;7.13;4.45;;;;;;;-142.91;0.00;100169.13;5046011;28;20270;-73
2023/12/06 01:42:51;;;;;;;7.40;4.85;;;;;;;;;;5037440;28;20698;-74
2023/12/06 01:45:18;;;;;;;5.80;4.75;;;;;;;-142.91;0.00;100169.13;5040921;28;20230;-74
2023/12/06 01:47:47;;;;;;;4.97;4.50;;;;;;;33.65;0.00;100169.13;5046269;28;20289;-75
2023/12/06 01:50:16;;;;;;;5.45;4.95;;;;;;;64.84;0.00;100169.13;5061661;28;20285;-74
2023/12/06 01:52:43;;;;;;;4.50;4.10;;;;;;;106.45;0.00;100169.13;5056392;28;20285;-74
2023/12/06 01:55:11;;;;;;;5.70;5.03;;;;;;;64.84;0.00;100169.13;5067075;28;20207;-74
2023/12/06 01:57:38;;;;;;;5.88;5.38;;;;;;;64.84;0.00;100169.13;5059000;28;20290;-72
2023/12/06 02:00:07;;;;;;;6.70;4.95;;;;;;;189.72;0.00;100169.13;5062199;28;20317;-76
2023/12/06 02:02:34;;;;;;;4.68;4.15;;;;;;;64.84;0.00;100169.13;5046111;28;20252;-75
2023/12/06 02:05:02;;;;;;;5.10;4.60;;;;;;;23.25;0.00;100169.13;5052496;28;20309;-75
2023/12/06 02:07:34;;;;;;;5.43;5.00;;;;;;;189.72;0.00;100169.13;5051456;28;20206;-76
2023/12/06 02:10:01;;;;;;;5.65;4.88;;;;;;;189.72;0.00;100169.13;5063895;28;20230;-73
2023/12/06 02:12:28;;;;;;;7.30;5.18;;;;;;;64.84;0.00;100169.13;5060402;28;20286;-75
2023/12/06 02:14:59;;;;;;;5.25;4.72;;;;;;;-142.91;0.00;100169.13;5036938;28;20397;-72
2023/12/06 02:17:26;;;;;;;4.38;4.07;;;;;;;-142.91;0.00;100169.13;5056022;28;20211;-73
2023/12/06 02:19:54;;;;;;;5.13;4.65;;;;;;;189.72;0.00;100169.13;5054135;28;20290;-73
2023/12/06 02:22:21;;;;;;;8.27;4.72;;;;;;;;;;5055956;28;20245;-74
2023/12/06 02:24:52;;;;;;;5.25;4.85;;;;;;;106.45;0.00;100169.13;5064693;28;20954;-73
2023/12/06 02:27:24;;;;;;;4.68;4.28;;;;;;;-142.91;0.00;100169.13;5061249;28;20260;-72
2023/12/06 02:29:50;;;;;;;5.60;4.53;;;;;;;;;;5054725;28;20635;-74
2023/12/06 02:32:18;;;;;;;4.30;3.90;;;;;;;189.72;0.00;100169.13;5067663;28;20245;-74
2023/12/06 02:34:47;;;;;;;4.97;4.32;;;;;;;-142.91;0.00;100169.13;5067248;28;20288;-76
2023/12/06 02:37:23;;;;;;;5.72;5.20;;;;;;;189.72;0.00;100169.13;5065481;28;20330;-71
2023/12/06 02:39:51;;;;;;;5.70;4.95;;;;;;;64.84;0.00;100169.13;5060543;28;20190;-75
2023/12/06 02:42:34;;;;;;;5.45;4.95;;;;;;;-142.91;0.00;100169.13;5058876;28;20242;-73
2023/12/06 02:45:01;;;;;;;6.75;5.10;;;;;;;33.65;0.00;100169.13;5060770;28;20206;-72
2023/12/06 02:47:28;;;;;;;6.82;5.82;;;;;;;-142.91;0.00;100169.13;5059628;28;20229;-73
2023/12/06 02:49:54;;;;;;;5.90;5.22;;;;;;;;;;5061441;28;20214;-73
2023/12/06 02:52:21;;;;;;;5.78;4.75;;;;;;;;;;5057089;28;20358;-75
2023/12/06 02:54:47;;;;;;;5.18;4.68;;;;;;;-142.91;0.00;100169.13;5056029;28;20290;-75
2023/12/06 02:57:14;;;;;;;5.45;4.95;;;;;;;-142.91;0.00;100169.13;5056688;28;20286;-73
2023/12/06 02:59:47;;;;;;;5.53;4.18;;;;;;;23.25;0.00;100169.13;5062483;28;20983;-73
2023/12/06 03:02:18;;;;;;;4.32;4.00;;;;;;;-142.91;0.00;100169.13;5067432;28;20610;-74
2023/12/06 03:04:44;;;;;;;4.35;3.95;;;;;;;-142.91;0.00;100169.13;5051403;28;20747;-75
2023/12/06 03:07:11;;;;;;;5.80;5.32;;;;;;;-142.91;0.00;100169.13;5054418;28;20255;-74
2023/12/06 03:09:38;;;;;;;7.25;4.80;;;;;;;-142.91;0.00;100169.13;5056506;28;20222;-74
2023/12/06 03:12:09;;;;;;;5.22;4.72;;;;;;;-142.91;0.00;100169.13;5055718;28;20233;-77
2023/12/06 03:14:38;;;;;;;5.88;5.00;;;;;;;25.85;0.00;100169.13;5059155;28;20656;-76
2023/12/06 03:17:17;;;;;;;6.45;4.88;;;;;;;-142.91;0.00;100169.13;5064104;28;20194;-74
2023/12/06 03:19:45;;;;;;;5.10;4.68;;;;;;;-142.91;0.00;100169.13;5053883;28;20198;-76
2023/12/06 03:22:22;;;;;;;6.32;4.70;;;;;;;44.04;0.00;100169.13;5049516;28;20211;-75
2023/12/06 03:24:56;;;;;;;4.95;4.53;;;;;;;-142.91;0.00;100169.13;5043894;28;20230;-74
2023/12/06 03:27:25;;;;;;;5.30;4.85;;;;;;;-142.91;0.00;100169.13;5063550;28;20586;-72
2023/12/06 03:30:02;;;;;;;5.25;4.75;;;;;;;-142.91;0.00;100169.13;5059968;28;20205;-71
2023/12/06 03:32:43;;;;;;;5.35;4.60;;;;;;;-142.91;0.00;100169.13;5059424;28;20684;-78
2023/12/06 03:35:12;;;;;;;6.40;4.07;;;;;;;-142.91;0.00;100169.13;5056466;28;20203;-71
2023/12/06 03:37:42;;;;;;;4.90;4.47;;;;;;;28.45;0.00;100169.13;5062848;28;20206;-73
2023/12/06 03:40:51;;;;;;;6.13;4.05;;;;;;;23.26;0.00;100169.13;5067286;28;20194;-73
2023/12/06 03:43:23;;;;;;;4.70;4.28;;;;;;;-142.91;0.00;100169.13;5061509;28;20207;-74
2023/12/06 03:45:54;;;;;;;4.63;4.20;;;;;;;64.84;0.00;100169.13;5065421;28;20911;-72
2023/12/06 03:48:54;;;;;;;5.05;4.03;;;;;;;-142.91;0.00;100169.13;5026746;28;20260;-72
2023/12/06 03:51:52;;;;;;;5.43;4.93;;;;;;;189.72;0.00;100169.13;5056714;28;20210;-72
2023/12/06 03:57:09;;;;;;;4.88;4.40;;;;;;;106.45;0.00;100169.13;5067448;28;20202;-73
2023/12/06 03:59:45;;;;;;;5.00;4.38;;;;;;;23.26;0.00;100169.13;5062358;28;20212;-71
2023/12/06 04:02:19;;;;;;;4.47;4.15;;;;;;;64.84;0.00;100169.13;5048874;28;20190;-72
2023/12/06 04:04:46;;;;;;;5.30;4.45;;;;;;;-142.91;0.00;100169.13;5028402;28;20252;-76
2023/12/06 04:07:31;;;;;;;4.22;3.83;;;;;;;33.65;0.00;100169.13;5066089;28;20270;-77
2023/12/06 04:12:50;;;;;;;4.90;4.50;;;;;;;23.41;0.00;100169.13;5045127;28;20602;-74
2023/12/06 04:15:19;;;;;;;5.43;4.30;;;;;;;-142.91;0.00;100169.13;5043600;28;20260;-72
2023/12/06 04:18:13;;;;;;;3.97;3.67;;;;;;;33.65;0.00;100169.13;5021876;28;20195;-76
2023/12/06 04:23:39;;;;;;;4.70;4.30;;;;;;;44.04;0.00;100169.13;5061697;28;20233;-76
2023/12/06 04:26:11;;;;;;;5.80;5.30;;;;;;;33.65;0.00;100169.13;5054462;28;20252;-75
2023/12/06 04:28:42;;;;;;;4.85;4.20;;;;;;;106.45;0.00;100169.13;5066768;28;20207;-76
2023/12/06 04:31:12;;;;;;;4.93;4.40;;;;;;;23.25;0.00;100169.13;5036737;28;20210;-73
2023/12/06 04:33:41;;;;;;;7.72;4.70;;;;;;;44.04;0.00;100169.13;5035053;28;20226;-75
2023/12/06 04:36:13;;;;;;;5.10;4.45;;;;;;;64.84;0.00;100169.13;5036485;28;20195;-76
2023/12/06 04:38:45;;;;;;;4.78;3.97;;;;;;;33.65;0.00;100169.13;5067113;28;20199;-76
2023/12/06 04:41:26;;;;;;;4.07;3.72;;;;;;;33.65;0.00;100169.13;5071392;28;20791;-74
2023/12/06 04:44:04;;;;;;;5.07;4.65;;;;;;;189.72;0.00;100169.13;5041460;28;20202;-74
2023/12/06 04:46:50;;;;;;;5.80;5.25;;;;;;;-142.91;0.00;100169.13;5072255;28;20221;-78
2023/12/06 04:49:28;;;;;;;6.03;4.05;;;;;;;23.41;0.00;100169.13;5072042;28;20194;-76
2023/12/06 04:52:00;;;;;;;5.10;4.60;;;;;;;-142.91;0.00;100169.13;5040820;28;20286;-73
2023/12/06 04:54:30;;;;;;;3.92;3.63;;;;;;;23.27;0.00;100169.13;5037438;28;20199;-74
2023/12/06 04:57:11;;;;;;;3.65;3.35;;;;;;;-142.91;0.00;100169.13;5063831;28;20191;-74
2023/12/06 04:59:39;;;;;;;4.45;4.05;;;;;;;106.45;0.00;100169.13;5056872;28;20202;-74
2023/12/06 05:02:08;;;;;;;4.72;4.32;;;;;;;23.26;0.00;100169.13;5065723;28;20257;-77
2023/12/06 05:04:34;;;;;;;5.07;4.60;;;;;;;23.25;0.00;100169.13;5061526;28;20217;-77
2023/12/06 05:07:01;;;;;;;4.63;4.25;;;;;;;64.84;0.00;100169.13;5063625;28;20653;-78
2023/12/06 05:09:47;;;;;;;4.72;3.90;;;;;;;189.72;0.00;100169.13;5069358;28;20237;-74
2023/12/06 05:12:19;;;;;;;4.85;3.72;;;;;;;189.72;0.00;100169.13;5072292;28;20202;-76
2023/12/06 05:14:54;;;;;;;5.60;4.13;;;;;;;23.33;0.00;100169.13;5076645;28;20194;-74
2023/12/06 05:17:22;;;;;;;3.50;3.20;;;;;;;189.72;0.00;100169.13;5041472;28;20199;-75
2023/12/06 05:19:54;;;;;;;3.92;3.53;;;;;;;189.72;0.00;100169.13;5048142;28;20285;-75
2023/12/06 05:22:20;;;;;;;5.60;5.10;;;;;;;23.25;0.00;100169.13;5070176;28;20232;-76
2023/12/06 05:25:04;;;;;;;5.32;4.82;;;;;;;-142.91;0.00;100169.13;5061152;28;20301;-78
2023/12/06 05:27:37;;;;;;;5.18;4.68;;;;;;;106.45;0.00;100169.13;5043060;28;20560;-75
2023/12/06 05:30:08;;;;;;;7.28;5.65;;;;;;;106.45;0.00;100169.13;5051200;28;20233;-73
2023/12/06 05:33:00;;;;;;;8.82;4.80;;;;;;;23.27;0.00;100169.13;5010735;28;20737;-72
2023/12/06 05:35:41;;;;;;;7.13;5.32;;;;;;;23.25;0.00;100169.13;5062457;28;20199;-76
2023/12/06 05:38:24;;;;;;;6.38;4.65;;;;;;;-142.91;0.00;100169.13;5058591;28;20227;-78
2023/12/06 05:40:56;;;;;;;6.13;4.90;;;;;;;64.84;0.00;100169.13;5063989;28;20190;-75
2023/12/06 05:43:30;;;;;;;6.32;4.93;;;;;;;23.26;0.00;100169.13;5044755;28;20699;-77
2023/12/06 05:45:58;;;;;;;5.15;4.65;;;;;;;-142.91;0.00;100169.13;5058102;28;20309;-77
2023/12/06 05:48:26;;;;;;;4.13;3.67;;;;;;;-142.91;0.00;100169.13;5058537;28;20284;-73
2023/12/06 05:51:03;;;;;;;7.55;4.38;;;;;;;23.26;0.00;100169.13;5026741;28;20226;-74
2023/12/06 05:53:30;;;;;;;6.15;5.55;;;;;;;-142.91;0.00;100169.13;5054967;28;20222;-73
2023/12/06 05:56:01;;;;;;;7.38;3.78;;;;;;;23.25;0.00;100169.13;5046926;28;20203;-77
2023/12/06 05:58:29;;;;;;;4.88;4.38;;;;;;;-142.91;0.00;100169.13;5060121;28;20290;-77
2023/12/06 06:00:59;;;;;;;3.67;3.33;;;;;;;-142.91;0.00;100169.13;5058356;28;20673;-77
2023/12/06 06:03:33;;;;;;;5.55;4.65;;;;;;;-142.91;0.00;100169.13;5059017;28;20221;-72
2023/12/06 06:06:09;;;;;;;3.58;3.28;;;;;;;-142.91;0.00;100169.13;5059096;28;20219;-78
2023/12/06 06:08:43;;;;;;;2.90;2.70;;;;;;;-142.91;0.00;100169.13;5046179;28;20201;-80
2023/12/06 06:11:33;;;;;;;4.85;4.13;;;;;;;-142.91;0.00;100169.13;5060154;28;20262;-79
2023/12/06 06:14:07;;;;;;;4.93;4.50;;;;;;;-142.91;0.00;100169.13;5062295;28;20194;-73
2023/12/06 06:16:47;;;;;;;5.68;4.88;;;;;;;-142.91;0.00;100169.13;5058276;28;20209;-74
2023/12/06 06:19:23;;;;;;;5.00;3.92;;;;;;;33.65;0.00;100169.13;5041875;28;20199;-73
2023/12/06 06:21:52;;;;;;;5.05;4.35;;;;;;;24.55;0.00;100169.13;5041264;28;20198;-75
2023/12/06 06:24:28;;;;;;;5.45;4.95;;;;;;;23.57;0.00;100169.13;5039183;28;20656;-80
2023/12/06 06:27:09;;;;;;;6.60;4.90;;;;;;;-142.91;0.00;100169.13;5057200;28;20218;-79
2023/12/06 06:29:44;;;;;;;5.88;4.20;;;;;;;24.55;0.00;100169.13;5057140;28;20199;-76
2023/12/06 06:32:16;;;;;;;4.55;3.78;;;;;;;-142.91;0.00;100169.13;5055665;28;20281;-76
2023/12/06 06:35:05;;;;;;;7.03;5.18;;;;;;;23.41;0.00;100169.13;5057508;28;20639;-80
2023/12/06 06:37:32;;;;;;;6.20;4.13;;;;;;;-142.91;0.00;100169.13;5058119;28;20211;-77
2023/12/06 06:40:07;;;;;;;11.32;5.90;;;;;;;-142.91;0.00;100169.13;5025147;28;20203;-72
2023/12/06 06:42:42;;;;;;;4.82;4.38;;;;;;;-142.91;0.00;100169.13;5044808;28;20227;-78
2023/12/06 06:48:10;;;;;;;6.28;3.75;;;;;;;-142.91;0.00;100169.13;5054941;28;20203;-77
2023/12/06 06:51:01;;;;;;;5.72;5.15;;;;;;;-142.91;0.00;100169.13;5041001;28;20282;-77
2023/12/06 06:53:34;;;;;;;8.82;6.00;;;;;;;-142.91;0.00;100169.13;5053904;28;20207;-83
2023/12/06 06:56:03;;;;;;;4.82;3.80;;;;;;;-142.91;0.00;100169.13;5056811;28;20709;-76
2023/12/06 06:58:32;;;;;;;7.55;4.78;;;;;;;23.41;0.00;100169.13;5054222;28;20291;-81
2023/12/06 07:01:05;;;;;;;9.07;5.40;;;;;;;-142.91;0.00;100169.13;5039961;28;20292;-78
2023/12/06 07:03:37;;;;;;;4.88;4.47;;;;;;;23.33;0.00;100169.13;5056615;28;20257;-77
2023/12/06 07:06:04;;;;;;;6.68;5.20;;;;;;;-142.91;0.00;100169.13;5055759;28;20215;-78
2023/12/06 07:12:12;;;;;;;6.47;5.85;;;;;;;-142.91;0.00;100169.13;5059941;28;20259;-78
2023/12/06 07:14:50;;;;;;;7.13;5.22;;;;;;;23.41;0.00;100169.13;5062892;28;20199;-73
2023/12/06 07:17:37;;;;;;;7.10;6.28;;;;;;;23.41;0.00;100169.13;5058825;28;20623;-76
2023/12/06 07:20:11;;;;;;;6.93;5.72;;;;;;;-142.91;0.00;100169.13;5038035;28;20298;-77
2023/12/06 07:32:22;;;;;;;5.80;5.25;;;;;;;23.29;0.00;100169.13;5040414;28;20223;-78
2023/12/06 07:34:52;;;;;;;9.07;6.85;;;;;;;23.33;0.00;100169.13;5026992;28;20593;-79
2023/12/06 07:37:20;;;;;;;6.82;6.10;;;;;;;-142.91;0.00;100169.13;5019011;28;20200;-79
2023/12/06 07:42:43;;;;;;;10.80;7.30;;;;;;;-142.91;0.00;100169.13;5042112;28;20689;-74
2023/12/06 07:45:11;;;;;;;7.65;6.90;;;;;;;-142.91;0.00;100169.13;5027850;28;20269;-79
2023/12/06 07:47:42;;;;;;;11.55;6.90;;;;;;;-142.91;0.00;100169.13;5022180;28;20231;-74
2023/12/06 07:50:14;;;;;;;9.40;7.47;;;;;;;-142.91;0.00;100169.13;5025964;28;20632;-78
2023/12/06 07:52:55;;;;;;;6.57;5.38;;;;;;;-142.91;0.00;100169.13;5042549;28;20196;-83
2023/12/06 08:01:32;;;;;;;8.23;6.95;;;;;;;-142.91;0.00;100169.13;5041149;28;20201;-77
2023/12/06 08:04:14;;;;;;;8.88;7.43;;;;;;;-142.91;0.00;100169.13;5053841;28;20203;-75
2023/12/06 08:07:11;;;;;;;11.35;6.90;;;;;;;-142.91;0.00;100169.13;5047679;28;20227;-75
2023/12/06 08:09:52;;;;;;;9.50;7.20;;;;;;;-142.91;0.00;100169.13;5028555;28;20204;-72
2023/12/06 08:27:35;;;;;;;9.50;6.53;;;;;;;33.65;0.00;100169.13;5024755;28;20228;-74
2023/12/06 08:30:04;;;;;;;8.27;6.75;;;;;;;-142.91;0.00;100169.13;5017916;28;20199;-80
2023/12/06 08:32:40;;;;;;;12.68;6.80;;;;;;;-142.91;0.00;100169.13;5022928;28;20224;-80
2023/12/06 08:35:16;;;;;;;7.15;6.45;;;;;;;-142.91;0.00;100169.13;5006580;28;20228;-73
2023/12/06 08:40:50;;;;;;;12.05;7.68;;;;;;;23.25;0.00;100169.13;5020489;28;20199;-76
2023/12/06 08:43:24;;;;;;;7.22;6.60;;;;;;;;;;5022811;28;20286;-80
2023/12/06 08:45:56;;;;;;;10.95;6.20;;;;;;;23.25;0.00;100169.13;5020245;28;20208;-74
2023/12/06 08:48:23;;;;;;;10.85;7.80;;;;;;;-142.91;0.00;100169.13;5017902;28;20283;-76
2023/12/06 08:50:54;;;;;;;8.80;7.90;;;;;;;-142.91;0.00;100169.13;5018781;28;20723;-80
2023/12/06 08:53:25;;;;;;;9.75;6.00;;;;;;;;;;5020848;28;20222;-76
2023/12/06 08:55:56;;;;;;;9.13;5.22;;;;;;;23.25;0.00;100169.13;5018118;28;20236;-77
2023/12/06 08:58:26;;;;;;;13.10;8.43;;;;;;;28.45;0.00;100169.13;5003336;28;20207;-79
2023/12/06 09:00:55;;;;;;;10.57;7.53;;;;;;;-142.91;0.00;100169.13;5036348;28;20331;-75
2023/12/06 09:03:28;;;;;;;10.45;7.78;;;;;;;-142.91;0.00;100169.13;5033255;28;20204;-83
2023/12/06 09:05:57;;;;;;;6.78;6.15;;;;;;;-142.91;0.00;100169.13;5020878;28;20210;-78
2023/12/06 09:08:29;;;;;;;8.20;6.63;;;;;;;24.55;0.00;100169.13;5022010;28;20665;-78
2023/12/06 09:10:56;;;;;;;13.48;7.90;;;;;;;-142.91;0.00;100169.13;5006527;28;20290;-82
2023/12/06 09:13:23;;;;;;;10.45;7.43;;;;;;;-142.91;0.00;100169.13;5019561;28;20207;-79
2023/12/06 09:15:50;;;;;;;10.70;7.78;;;;;;;23.25;0.00;100169.13;5019814;28;20283;-77
2023/12/06 09:18:18;;;;;;;10.27;8.02;;;;;;;-142.91;0.00;100169.13;5003782;28;20203;-78
2023/12/06 09:20:46;;;;;;;11.02;6.28;;;;;;;23.25;0.00;100169.13;4997979;28;20200;-75
2023/12/06 09:23:17;;;;;;;8.20;6.95;;;;;;;-142.91;0.00;100169.13;5009817;28;20200;-79
2023/12/06 09:25:51;;;;;;;9.27;7.00;;;;;;;-142.91;0.00;100169.13;5019085;28;20251;-79
2023/12/06 09:28:19;;;;;;;9.20;7.53;;;;;;;;;;5028651;28;20196;-81
2023/12/06 09:30:59;;;;;;;7.78;5.93;;;;;;;-142.91;0.00;100169.13;5030605;28;20231;-71
2023/12/06 09:33:43;;;;;;;7.43;6.60;;;;;;;-142.91;0.00;100169.13;5019107;28;20200;-74
2023/12/06 09:36:13;;;;;;;13.32;7.15;;;;;;;-142.91;0.00;100169.13;5030637;28;20680;-74
2023/12/06 09:38:39;;;;;;;5.40;4.90;;;;;;;-142.91;0.00;100169.13;5027012;28;20224;-77
2023/12/06 09:41:08;;;;;;;7.15;6.35;;;;;;;-142.91;0.00;100169.13;5025973;28;20283;-76
2023/12/06 09:43:36;;;;;;;6.78;5.93;;;;;;;-142.91;0.00;100169.13;5013444;28;20215;-77
2023/12/06 09:46:03;;;;;;;9.23;7.18;;;;;;;-142.91;0.00;100169.13;5009242;28;20210;-76
2023/12/06 09:48:30;;;;;;;9.55;6.50;;;;;;;-142.91;0.00;100169.13;5017749;28;20211;-75
2023/12/06 09:50:57;;;;;;;6.90;6.03;;;;;;;23.25;0.00;100169.13;5017196;28;20291;-73
2023/12/06 09:53:25;;;;;;;8.77;7.10;;;;;;;-142.91;0.00;100169.13;5023053;28;20243;-75
2023/12/06 09:55:52;;;;;;;6.63;5.88;;;;;;;-142.91;0.00;100169.13;5013709;28;20206;-74
2023/12/06 09:58:20;;;;;;;9.55;6.53;;;;;;;;;;5010804;28;20571;-75
2023/12/06 10:00:47;;;;;;;8.30;6.82;;;;;;;-142.91;0.00;100169.13;5014002;28;20297;-76
2023/12/06 10:03:15;;;;;;;8.00;6.13;;;;;;;-142.91;0.00;100169.13;5012765;28;20657;-77
2023/12/06 10:05:53;;;;;;;30.95;6.10;;;;;;;-142.91;0.00;100169.13;5014253;28;20212;-76
2023/12/06 10:08:20;;;;;;;9.88;7.03;;;;;;;;;;5026528;28;20220;-74
2023/12/06 10:10:48;;;;;;;8.95;7.25;;;;;;;-142.91;0.00;100169.13;5017843;28;20299;-76
2023/12/06 10:16:00;;;;;;;7.38;6.38;;;;;;;-142.91;0.00;100169.13;5014131;28;20207;-78
2023/12/06 10:18:27;;;;;;;11.18;6.88;;;;;;;-142.91;0.00;100169.13;5009569;28;20289;-79
2023/12/06 10:20:55;;;;;;;8.43;5.97;;;;;;;-142.91;0.00;100169.13;5008435;28;20318;-77
2023/12/06 10:23:21;;;;;;;9.35;7.22;;;;;;;;;;4991797;28;20365;-74
2023/12/06 10:25:49;;;;;;;6.47;5.68;;;;;;;-142.91;0.00;100169.13;5023783;28;20325;-75
2023/12/06 10:28:18;;;;;;;6.38;4.90;;;;;;;23.27;0.00;100169.13;5026890;28;20594;-75
2023/12/06 10:30:44;;;;;;;7.07;5.70;;;;;;;;;;5027214;28;20199;-76
2023/12/06 10:33:14;;;;;;;5.47;4.65;;;;;;;;;;5028579;28;20230;-75
2023/12/06 10:35:42;;;;;;;6.13;4.38;;;;;;;-142.91;0.00;100169.13;5034951;28;20353;-76
2023/12/06 10:38:10;;;;;;;6.78;4.47;;;;;;;-142.91;0.00;100169.13;5030972;28;20632;-75
2023/12/06 10:40:39;;;;;;;5.20;4.70;;;;;;;;;;5034220;28;20286;-77
2023/12/06 10:43:07;;;;;;;6.05;4.25;;;;;;;-142.91;0.00;100169.13;5030248;28;20203;-80
2023/12/06 10:45:34;;;;;;;4.43;4.03;;;;;;;;;;5028162;28;20218;-77
2023/12/06 10:48:06;;;;;;;4.00;3.58;;;;;;;23.25;0.00;100169.13;5031636;28;20643;-77
2023/12/06 10:50:35;;;;;;;5.13;4.35;;;;;;;23.25;0.00;100169.13;5010015;28;20209;-76
2023/12/06 10:53:04;;;;;;;3.63;3.33;;;;;;;-142.91;0.00;100169.13;5032287;28;20195;-75
2023/12/06 10:55:32;;;;;;;3.80;3.50;;;;;;;-142.91;0.00;100169.13;5033868;28;20293;-76
2023/12/06 10:58:00;;;;;;;2.20;2.10;;;;;;;;;;5028782;28;21361;-77
2023/12/06 11:00:28;;;;;;;4.40;4.10;;;;;;;-142.91;0.00;100169.13;5030163;28;20325;-78
2023/12/06 11:02:55;;;;;;;3.30;3.00;;;;;;;106.45;0.00;100169.13;5042339;28;20261;-77
2023/12/06 11:05:24;;;;;;;4.25;3.42;;;;;;;-142.91;0.00;100169.13;5047308;28;20618;-75
2023/12/06 11:08:12;;;;;;;5.45;4.07;;;;;;;-142.91;0.00;100169.13;5053550;28;20714;-76
2023/12/06 11:10:51;;;;;;;2.65;2.47;;;;;;;-142.91;0.00;100169.13;5053743;28;20703;-75
2023/12/06 11:13:31;;;;;;;3.70;3.10;;;;;;;-142.91;0.00;100169.13;5055374;28;20285;-76
2023/12/06 11:16:07;;;;;;;4.95;3.33;;;;;;;-142.91;0.00;100169.13;5056569;28;20287;-77
2023/12/06 11:18:44;;;;;;;2.83;2.63;;;;;;;-142.91;0.00;100169.13;5054389;28;20650;-76
2023/12/06 11:21:13;;;;;;;4.38;4.05;;;;;;;-142.91;0.00;100169.13;5037255;28;20210;-75
2023/12/06 11:23:41;;;;;;;4.43;3.97;;;;;;;189.72;0.00;100169.13;5055593;28;20286;-78
2023/12/06 11:26:08;;;;;;;4.82;4.38;;;;;;;-142.91;0.00;100169.13;5051776;28;20246;-74
2023/12/06 11:28:39;;;;;;;2.33;2.22;;;;;;;-142.91;0.00;100169.13;5054099;28;20707;-77
2023/12/06 11:31:06;;;;;;;5.50;3.53;;;;;;;-142.91;0.00;100169.13;5058484;28;20202;-77
2023/12/06 11:33:33;;;;;;;3.55;3.25;;;;;;;-142.91;0.00;100169.13;5063984;28;20195;-81
2023/12/06 11:36:01;;;;;;;6.00;2.60;;;;;;;23.25;0.00;100169.13;5058816;28;20239;-78
2023/12/06 11:38:35;;;;;;;4.70;4.03;;;;;;;-142.91;0.00;100169.13;5057480;28;20298;-77
2023/12/06 11:41:04;;;;;;;4.13;3.72;;;;;;;-142.91;0.00;100169.13;5064001;28;20230;-75
2023/12/06 11:43:33;;;;;;;4.15;3.85;;;;;;;-142.91;0.00;100169.13;5054510;28;20664;-75
2023/12/06 11:46:04;;;;;;;4.28;3.78;;;;;;;-142.91;0.00;100169.13;5056406;28;20286;-76
2023/12/06 11:48:30;;;;;;;5.13;4.63;;;;;;;-142.91;0.00;100169.13;5059833;28;20742;-77
2023/12/06 11:50:59;;;;;;;4.45;4.05;;;;;;;23.26;0.00;100169.13;5063153;28;20264;-77
2023/12/06 11:53:27;;;;;;;4.03;3.63;;;;;;;23.25;0.00;100169.13;5063465;28;20278;-76
2023/12/06 11:55:54;;;;;;;4.25;3.88;;;;;;;-142.91;0.00;100169.13;5064308;28;20356;-74
2023/12/06 11:58:23;;;;;;;7.32;4.22;;;;;;;;;;5059154;28;20199;-75
2023/12/06 12:00:51;;;;;;;5.25;4.80;;;;;;;;;;5057512;28;20226;-77
2023/12/06 12:03:18;;;;;;;4.95;4.55;;;;;;;-142.91;0.00;100169.13;5065167;28;20339;-77
2023/12/06 12:05:45;;;;;;;5.28;4.80;;;;;;;-142.91;0.00;100169.13;5062529;28;20230;-75
2023/12/06 12:08:12;;;;;;;8.77;4.25;;;;;;;-142.91;0.00;100169.13;5061142;28;20725;-80
2023/12/06 12:10:41;;;;;;;5.30;3.88;;;;;;;-142.91;0.00;100169.13;5057685;28;20195;-75
2023/12/06 12:13:16;;;;;;;4.68;4.22;;;;;;;-142.91;0.00;100169.13;5068825;28;20234;-77
2023/12/06 12:15:52;;;;;;;5.78;4.22;;;;;;;-142.91;0.00;100169.13;5032777;28;20601;-76
2023/12/06 12:18:19;;;;;;;4.25;3.95;;;;;;;-142.91;0.00;100169.13;5057056;28;20197;-75
2023/12/06 12:20:46;;;;;;;6.55;4.75;;;;;;;-142.91;0.00;100169.13;5052994;28;20294;-74
2023/12/06 12:23:13;;;;;;;3.45;3.15;;;;;;;-142.91;0.00;100169.13;5056371;28;20270;-76
2023/12/06 12:25:46;;;;;;;4.40;3.97;;;;;;;-142.91;0.00;100169.13;5041232;28;20321;-78
2023/12/06 12:28:16;;;;;;;3.75;3.40;;;;;;;-142.91;0.00;100169.13;5049728;28;20317;-77
2023/12/06 12:30:44;;;;;;;4.40;4.00;;;;;;;-142.91;0.00;100169.13;5051619;28;20790;-78
2023/12/06 12:33:17;;;;;;;3.40;3.17;;;;;;;-142.91;0.00;100169.13;5057257;28;20289;-75
2023/12/06 12:35:44;;;;;;;6.03;4.60;;;;;;;-142.91;0.00;100169.13;5054282;28;20233;-76
2023/12/06 12:38:11;;;;;;;5.78;4.75;;;;;;;-142.91;0.00;100169.13;5055905;28;20254;-74
2023/12/06 12:40:39;;;;;;;5.80;4.45;;;;;;;-142.91;0.00;100169.13;5061338;28;20253;-78
2023/12/06 12:43:06;;;;;;;6.22;5.00;;;;;;;-142.91;0.00;100169.13;5061474;28;20203;-76
2023/12/06 12:45:36;;;;;;;4.65;4.25;;;;;;;-142.91;0.00;100169.13;5061664;28;20664;-76
2023/12/06 12:48:05;;;;;;;3.97;3.67;;;;;;;-142.91;0.00;100169.13;5055140;28;20222;-76
2023/12/06 12:50:33;;;;;;;5.22;4.75;;;;;;;-142.91;0.00;100169.13;5033205;28;20206;-79
2023/12/06 12:53:01;;;;;;;3.72;2.95;;;;;;;23.25;0.00;100169.13;5048920;28;20789;-77